createdAt,value
2018-10-18T00:00:49.315Z,24.50
2018-10-18T00:01:49.328Z,23.50
2018-10-18T00:02:49.351Z,25.50
2018-10-18T00:03:49.270Z,24.90
2018-10-18T00:04:49.286Z,25.00
2018-10-18T00:05:49.238Z,25.30
2018-10-18T00:06:49.224Z,24.30
2018-10-18T00:07:49.247Z,24.90
2018-10-18T00:08:49.228Z,24.70
2018-10-18T00:09:49.199Z,26.30
2018-10-18T00:10:49.203Z,24.70
2018-10-18T00:11:49.188Z,25.00
2018-10-18T00:12:49.172Z,23.10
2018-10-18T00:13:49.162Z,25.80
2018-10-18T00:14:49.157Z,24.90
2018-10-18T00:15:49.132Z,24.90
2018-10-18T00:16:49.130Z,23.90
2018-10-18T00:17:49.167Z,24.00
2018-10-18T00:18:49.107Z,24.40
2018-10-18T00:19:49.077Z,23.10
2018-10-18T00:20:49.069Z,24.20
2018-10-18T00:21:49.116Z,23.10
2018-10-18T00:22:49.046Z,24.20
2018-10-18T00:23:49.059Z,24.50
2018-10-18T00:24:49.015Z,24.00
2018-10-18T00:25:49.004Z,24.00
2018-10-18T00:26:49.003Z,23.50
2018-10-18T00:27:49.011Z,24.20
2018-10-18T00:28:48.991Z,24.00
2018-10-18T00:29:49.047Z,23.20
2018-10-18T00:30:48.953Z,23.80
2018-10-18T00:31:48.994Z,22.90
2018-10-18T00:32:48.967Z,22.60
2018-10-18T00:33:48.929Z,23.30
2018-10-18T00:34:48.912Z,23.50
2018-10-18T00:35:48.892Z,23.60
2018-10-18T00:36:48.885Z,23.40
2018-10-18T00:37:48.899Z,22.20
2018-10-18T00:38:48.874Z,22.40
2018-10-18T00:39:48.851Z,22.70
2018-10-18T00:40:48.842Z,23.10
2018-10-18T00:41:48.861Z,23.60
2018-10-18T00:42:48.833Z,23.00
2018-10-18T00:43:48.847Z,23.10
2018-10-18T00:44:48.820Z,23.80
2018-10-18T00:45:48.784Z,24.10
2018-10-18T00:46:48.805Z,24.60
2018-10-18T00:47:48.758Z,24.50
2018-10-18T00:48:48.815Z,23.90
2018-10-18T00:49:48.763Z,23.50
2018-10-18T00:50:48.749Z,23.50
2018-10-18T00:51:48.735Z,23.10
2018-10-18T00:52:48.711Z,25.50
2018-10-18T00:53:48.714Z,25.00
2018-10-18T00:54:48.705Z,23.80
2018-10-18T00:55:48.724Z,23.10
2018-10-18T00:56:48.659Z,23.20
2018-10-18T00:57:48.677Z,21.80
2018-10-18T00:58:48.669Z,23.90
2018-10-18T00:59:48.677Z,23.40
2018-10-18T01:00:48.643Z,22.20
2018-10-18T01:01:48.637Z,22.60
2018-10-18T01:02:48.591Z,22.40
2018-10-18T01:03:48.621Z,23.10
2018-10-18T01:04:48.632Z,22.30
2018-10-18T01:05:48.574Z,22.10
2018-10-18T01:06:48.620Z,22.00
2018-10-18T01:07:48.562Z,21.80
2018-10-18T01:08:48.525Z,21.80
2018-10-18T01:09:48.650Z,21.60
2018-10-18T01:10:48.531Z,22.00
2018-10-18T01:11:48.511Z,21.60
2018-10-18T01:12:48.483Z,21.60
2018-10-18T01:13:48.469Z,22.20
2018-10-18T01:14:48.462Z,23.30
2018-10-18T01:15:48.521Z,24.40
2018-10-18T01:16:48.445Z,23.40
2018-10-18T01:17:48.433Z,24.20
2018-10-18T01:18:48.472Z,23.50
2018-10-18T01:19:48.444Z,23.70
2018-10-18T01:20:48.426Z,24.30
2018-10-18T01:21:48.378Z,23.60
2018-10-18T01:22:48.369Z,23.30
2018-10-18T01:23:48.389Z,22.80
2018-10-18T01:24:48.372Z,23.20
2018-10-18T01:25:48.378Z,23.30
2018-10-18T01:26:48.376Z,23.90
2018-10-18T01:27:48.320Z,23.10
2018-10-18T01:28:48.333Z,23.30
2018-10-18T01:29:48.324Z,22.80
2018-10-18T01:30:48.304Z,22.60
2018-10-18T01:31:48.278Z,23.00
2018-10-18T01:32:48.312Z,23.20
2018-10-18T01:33:48.267Z,22.60
2018-10-18T01:34:48.265Z,23.00
2018-10-18T01:35:48.242Z,23.50
2018-10-18T01:36:48.267Z,22.50
2018-10-18T01:37:48.241Z,22.40
2018-10-18T01:38:48.199Z,22.60
2018-10-18T01:39:48.193Z,21.90
2018-10-18T01:40:48.237Z,22.10
2018-10-18T01:41:48.189Z,22.50
2018-10-18T01:42:48.182Z,22.80
2018-10-18T01:43:48.167Z,22.60
2018-10-18T01:44:48.155Z,22.00
2018-10-18T01:45:48.127Z,23.10
2018-10-18T01:46:48.181Z,21.80
2018-10-18T01:47:48.111Z,22.50
2018-10-18T01:48:48.078Z,22.00
2018-10-18T01:49:48.094Z,21.30
2018-10-18T01:50:48.058Z,21.90
2018-10-18T01:51:48.084Z,20.60
2018-10-18T01:52:48.076Z,20.60
2018-10-18T01:53:48.062Z,21.50
2018-10-18T01:54:48.038Z,21.20
2018-10-18T01:55:48.029Z,20.90
2018-10-18T01:56:48.012Z,22.10
2018-10-18T01:57:48.005Z,21.60
2018-10-18T01:58:48.063Z,22.00
2018-10-18T01:59:47.982Z,21.30
2018-10-18T02:00:47.984Z,21.70
2018-10-18T02:01:47.945Z,22.60
2018-10-18T02:02:47.956Z,22.10
2018-10-18T02:03:47.987Z,22.30
2018-10-18T02:04:47.906Z,22.40
2018-10-18T02:05:47.917Z,22.80
2018-10-18T02:06:47.907Z,22.80
2018-10-18T02:07:47.892Z,22.80
2018-10-18T02:08:47.874Z,22.80
2018-10-18T02:09:47.871Z,21.50
2018-10-18T02:10:47.861Z,21.70
2018-10-18T02:11:47.848Z,21.20
2018-10-18T02:12:47.834Z,22.30
2018-10-18T02:13:47.897Z,20.70
2018-10-18T02:14:47.796Z,20.50
2018-10-18T02:15:47.799Z,20.60
2018-10-18T02:16:47.783Z,20.30
2018-10-18T02:17:47.780Z,20.40
2018-10-18T02:18:47.776Z,20.30
2018-10-18T02:19:47.744Z,20.60
2018-10-18T02:20:47.730Z,20.90
2018-10-18T02:21:47.721Z,21.00
2018-10-18T02:22:47.706Z,20.90
2018-10-18T02:23:47.719Z,20.50
2018-10-18T02:24:47.702Z,20.30
2018-10-18T02:25:47.676Z,20.20
2018-10-18T02:26:47.762Z,20.70
2018-10-18T02:27:47.664Z,21.20
2018-10-18T02:28:47.644Z,20.70
2018-10-18T02:29:47.643Z,20.00
2018-10-18T02:30:47.620Z,21.30
2018-10-18T02:31:47.624Z,20.60
2018-10-18T02:32:47.596Z,21.60
2018-10-18T02:33:47.593Z,21.60
2018-10-18T02:34:47.621Z,20.70
2018-10-18T02:35:47.592Z,20.00
2018-10-18T02:36:47.572Z,20.90
2018-10-18T02:37:47.546Z,20.70
2018-10-18T02:38:47.544Z,20.90
2018-10-18T02:39:47.540Z,21.00
2018-10-18T02:40:47.515Z,20.60
2018-10-18T02:41:47.491Z,20.40
2018-10-18T02:42:47.493Z,20.80
2018-10-18T02:43:47.475Z,21.20
2018-10-18T02:44:47.459Z,20.60
2018-10-18T02:45:47.482Z,20.70
2018-10-18T02:46:47.442Z,21.00
2018-10-18T02:47:47.438Z,21.10
2018-10-18T02:48:47.459Z,21.70
2018-10-18T02:49:47.415Z,21.80
2018-10-18T02:50:47.407Z,20.60
2018-10-18T02:51:47.461Z,21.20
2018-10-18T02:52:47.376Z,21.40
2018-10-18T02:53:47.377Z,21.70
2018-10-18T02:54:47.372Z,21.20
2018-10-18T02:55:47.338Z,21.60
2018-10-18T02:56:47.347Z,21.40
2018-10-18T02:57:47.352Z,21.00
2018-10-18T02:58:47.309Z,20.00
2018-10-18T02:59:47.336Z,20.80
2018-10-18T03:00:47.301Z,21.40
2018-10-18T03:01:47.292Z,20.50
2018-10-18T03:02:47.282Z,20.50
2018-10-18T03:03:47.252Z,21.60
2018-10-18T03:04:47.290Z,21.20
2018-10-18T03:05:47.224Z,21.00
2018-10-18T03:06:47.241Z,21.00
2018-10-18T03:07:47.210Z,20.60
2018-10-18T03:08:47.193Z,20.20
2018-10-18T03:09:47.196Z,21.60
2018-10-18T03:10:47.191Z,21.00
2018-10-18T03:11:47.180Z,21.50
2018-10-18T03:12:47.150Z,21.60
2018-10-18T03:13:47.138Z,21.20
2018-10-18T03:14:47.126Z,21.30
2018-10-18T03:15:47.180Z,21.70
2018-10-18T03:16:47.113Z,21.60
2018-10-18T03:17:47.204Z,20.50
2018-10-18T03:18:47.090Z,22.20
2018-10-18T03:19:47.080Z,21.00
2018-10-18T03:20:47.113Z,22.50
2018-10-18T03:21:47.061Z,22.10
2018-10-18T03:22:47.060Z,22.10
2018-10-18T03:23:47.036Z,22.50
2018-10-18T03:24:47.029Z,23.40
2018-10-18T03:25:47.044Z,21.60
2018-10-18T03:26:47.002Z,21.70
2018-10-18T03:27:47.067Z,20.60
2018-10-18T03:28:46.996Z,20.70
2018-10-18T03:29:46.969Z,20.30
2018-10-18T03:30:46.962Z,20.10
2018-10-18T03:31:46.950Z,20.20
2018-10-18T03:32:46.943Z,20.20
2018-10-18T03:33:46.953Z,20.50
2018-10-18T03:34:46.920Z,20.80
2018-10-18T03:35:46.976Z,20.30
2018-10-18T03:36:46.911Z,20.00
2018-10-18T03:37:46.892Z,21.20
2018-10-18T03:38:46.868Z,20.90
2018-10-18T03:39:46.901Z,20.60
2018-10-18T03:40:46.854Z,21.30
2018-10-18T03:41:46.890Z,21.10
2018-10-18T03:42:46.820Z,21.60
2018-10-18T03:43:46.824Z,20.90
2018-10-18T03:44:46.801Z,21.00
2018-10-18T03:45:46.793Z,21.20
2018-10-18T03:46:46.766Z,22.90
2018-10-18T03:47:46.764Z,24.70
2018-10-18T03:48:46.748Z,25.90
2018-10-18T03:49:46.757Z,31.50
2018-10-18T03:50:46.766Z,28.30
2018-10-18T03:51:46.732Z,25.40
2018-10-18T03:52:46.711Z,24.40
2018-10-18T03:53:46.690Z,23.50
2018-10-18T03:54:46.691Z,23.60
2018-10-18T03:55:46.674Z,23.70
2018-10-18T03:56:46.657Z,22.60
2018-10-18T03:57:46.679Z,22.90
2018-10-18T03:58:46.677Z,22.90
2018-10-18T03:59:46.743Z,24.50
2018-10-18T04:00:46.617Z,24.30
2018-10-18T04:01:46.608Z,24.40
2018-10-18T04:02:46.599Z,25.20
2018-10-18T04:03:46.584Z,25.40
2018-10-18T04:04:46.596Z,25.20
2018-10-18T04:05:46.599Z,25.20
2018-10-18T04:06:46.549Z,24.50
2018-10-18T04:07:46.554Z,24.30
2018-10-18T04:08:46.545Z,21.90
2018-10-18T04:09:46.567Z,22.40
2018-10-18T04:10:46.509Z,21.20
2018-10-18T04:11:46.502Z,21.10
2018-10-18T04:12:46.602Z,20.40
2018-10-18T04:13:46.473Z,20.90
2018-10-18T04:14:46.497Z,21.70
2018-10-18T04:15:46.449Z,21.80
2018-10-18T04:16:46.440Z,21.70
2018-10-18T04:17:46.470Z,21.10
2018-10-18T04:18:46.439Z,21.90
2018-10-18T04:19:46.418Z,21.70
2018-10-18T04:20:46.444Z,23.70
2018-10-18T04:21:46.398Z,22.20
2018-10-18T04:22:46.393Z,20.90
2018-10-18T04:23:46.384Z,19.80
2018-10-18T04:24:46.354Z,20.80
2018-10-18T04:25:46.360Z,20.00
2018-10-18T04:26:46.325Z,19.40
2018-10-18T04:27:46.333Z,19.90
2018-10-18T04:28:46.306Z,19.10
2018-10-18T04:29:46.297Z,19.90
2018-10-18T04:30:46.309Z,19.00
2018-10-18T04:31:46.291Z,19.70
2018-10-18T04:32:46.275Z,19.30
2018-10-18T04:33:46.273Z,19.40
2018-10-18T04:34:46.239Z,19.00
2018-10-18T04:35:46.265Z,19.50
2018-10-18T04:36:46.283Z,20.00
2018-10-18T04:37:46.238Z,20.00
2018-10-18T04:38:46.201Z,19.30
2018-10-18T04:39:46.206Z,20.00
2018-10-18T04:40:46.291Z,19.30
2018-10-18T04:41:46.203Z,19.20
2018-10-18T04:42:46.158Z,18.90
2018-10-18T04:43:46.137Z,19.60
2018-10-18T04:44:46.143Z,18.30
2018-10-18T04:45:46.121Z,19.10
2018-10-18T04:46:46.105Z,18.60
2018-10-18T04:47:46.275Z,18.60
2018-10-18T04:48:46.136Z,19.30
2018-10-18T04:49:46.095Z,17.60
2018-10-18T04:50:46.107Z,19.10
2018-10-18T04:51:46.055Z,19.00
2018-10-18T04:52:46.073Z,18.80
2018-10-18T04:53:46.085Z,17.70
2018-10-18T04:54:46.023Z,18.70
2018-10-18T04:55:46.026Z,18.30
2018-10-18T04:56:46.058Z,18.90
2018-10-18T04:57:45.989Z,18.80
2018-10-18T04:58:45.992Z,18.70
2018-10-18T04:59:46.055Z,19.10
2018-10-18T05:00:45.982Z,18.80
2018-10-18T05:01:45.950Z,18.40
2018-10-18T05:02:46.081Z,19.30
2018-10-18T05:03:45.946Z,20.20
2018-10-18T05:04:45.954Z,21.60
2018-10-18T05:05:45.914Z,21.80
2018-10-18T05:06:45.926Z,22.10
2018-10-18T05:07:45.882Z,22.10
2018-10-18T05:08:45.900Z,21.40
2018-10-18T05:09:45.879Z,21.70
2018-10-18T05:10:45.871Z,21.60
2018-10-18T05:11:45.836Z,20.10
2018-10-18T05:12:45.943Z,21.50
2018-10-18T05:13:45.840Z,22.00
2018-10-18T05:14:45.825Z,22.30
2018-10-18T05:15:45.811Z,23.40
2018-10-18T05:16:45.789Z,23.60
2018-10-18T05:17:45.787Z,24.10
2018-10-18T05:18:45.818Z,24.20
2018-10-18T05:19:45.799Z,22.90
2018-10-18T05:20:45.741Z,22.70
2018-10-18T05:21:45.743Z,22.70
2018-10-18T05:22:45.715Z,23.10
2018-10-18T05:23:45.750Z,20.60
2018-10-18T05:24:45.753Z,20.70
2018-10-18T05:25:45.695Z,20.10
2018-10-18T05:26:45.661Z,19.50
2018-10-18T05:27:45.664Z,19.90
2018-10-18T05:28:45.662Z,19.60
2018-10-18T05:29:45.627Z,19.90
2018-10-18T05:30:45.691Z,20.20
2018-10-18T05:31:45.757Z,20.90
2018-10-18T05:32:45.596Z,21.20
2018-10-18T05:33:45.693Z,20.70
2018-10-18T05:34:45.637Z,20.70
2018-10-18T05:35:45.569Z,21.40
2018-10-18T05:36:45.554Z,21.30
2018-10-18T05:37:45.661Z,20.60
2018-10-18T05:38:45.528Z,20.80
2018-10-18T05:39:45.546Z,21.90
2018-10-18T05:40:45.514Z,21.90
2018-10-18T05:41:45.495Z,22.60
2018-10-18T05:42:45.502Z,22.00
2018-10-18T05:43:45.591Z,23.40
2018-10-18T05:44:45.491Z,22.80
2018-10-18T05:45:45.465Z,21.70
2018-10-18T05:46:45.530Z,21.60
2018-10-18T05:47:45.427Z,21.70
2018-10-18T05:48:45.490Z,22.50
2018-10-18T05:49:45.403Z,22.20
2018-10-18T05:50:45.401Z,22.60
2018-10-18T05:51:45.388Z,22.20
2018-10-18T05:52:45.391Z,23.50
2018-10-18T05:53:45.568Z,21.50
2018-10-18T05:54:45.391Z,21.70
2018-10-18T05:55:45.335Z,21.50
2018-10-18T05:56:45.332Z,22.30
2018-10-18T05:57:45.335Z,21.10
2018-10-18T05:58:45.314Z,21.20
2018-10-18T05:59:45.295Z,20.60
2018-10-18T06:00:45.294Z,21.00
2018-10-18T06:01:45.304Z,21.50
2018-10-18T06:02:45.258Z,21.20
2018-10-18T06:03:45.405Z,20.60
2018-10-18T06:04:45.234Z,27.10
2018-10-18T06:05:45.279Z,29.70
2018-10-18T06:06:45.324Z,27.90
2018-10-18T06:07:45.224Z,26.10
2018-10-18T06:08:45.273Z,22.80
2018-10-18T06:09:45.384Z,24.10
2018-10-18T06:10:45.188Z,23.40
2018-10-18T06:11:45.194Z,23.20
2018-10-18T06:12:45.177Z,24.50
2018-10-18T06:13:45.156Z,24.20
2018-10-18T06:14:45.202Z,24.30
2018-10-18T06:15:45.140Z,30.60
2018-10-18T06:16:45.109Z,34.30
2018-10-18T06:17:45.109Z,28.30
2018-10-18T06:18:45.093Z,25.90
2018-10-18T06:19:45.105Z,25.40
2018-10-18T06:20:45.055Z,27.00
2018-10-18T06:21:45.072Z,29.00
2018-10-18T06:22:45.139Z,31.40
2018-10-18T06:23:45.043Z,46.10
2018-10-18T06:24:45.021Z,50.00
2018-10-18T06:25:45.047Z,44.00
2018-10-18T06:26:44.994Z,40.50
2018-10-18T06:27:44.984Z,35.60
2018-10-18T06:28:44.987Z,35.10
2018-10-18T06:29:44.968Z,34.30
2018-10-18T06:30:44.942Z,33.00
2018-10-18T06:31:45.020Z,30.80
2018-10-18T06:32:44.946Z,29.40
2018-10-18T06:33:44.940Z,28.50
2018-10-18T06:34:44.907Z,27.80
2018-10-18T06:35:44.906Z,27.60
2018-10-18T06:36:44.891Z,27.20
2018-10-18T06:37:44.865Z,27.30
2018-10-18T06:38:44.888Z,27.20
2018-10-18T06:39:44.883Z,27.10
2018-10-18T06:40:44.836Z,27.40
2018-10-18T06:41:44.871Z,27.10
2018-10-18T06:42:44.815Z,28.50
2018-10-18T06:43:44.802Z,27.00
2018-10-18T06:44:44.817Z,27.80
2018-10-18T06:45:44.785Z,27.40
2018-10-18T06:46:44.821Z,27.40
2018-10-18T06:47:45.017Z,27.60
2018-10-18T06:48:44.753Z,27.70
2018-10-18T06:49:44.753Z,28.30
2018-10-18T06:50:44.726Z,29.10
2018-10-18T06:51:44.730Z,28.30
2018-10-18T06:52:44.712Z,27.90
2018-10-18T06:53:44.786Z,30.40
2018-10-18T06:54:44.726Z,28.90
2018-10-18T06:55:44.693Z,30.30
2018-10-18T06:56:44.656Z,28.90
2018-10-18T06:57:44.649Z,29.30
2018-10-18T06:58:44.643Z,29.80
2018-10-18T06:59:44.693Z,30.00
2018-10-18T07:00:44.623Z,30.80
2018-10-18T07:01:44.597Z,30.10
2018-10-18T07:02:44.589Z,28.80
2018-10-18T07:03:44.577Z,31.20
2018-10-18T07:04:44.584Z,29.10
2018-10-18T07:05:44.632Z,28.80
2018-10-18T07:06:44.550Z,30.50
2018-10-18T07:07:44.549Z,29.90
2018-10-18T07:08:44.526Z,29.80
2018-10-18T07:09:44.531Z,29.50
2018-10-18T07:10:44.541Z,30.10
2018-10-18T07:11:44.551Z,29.40
2018-10-18T07:12:44.508Z,28.80
2018-10-18T07:13:44.495Z,28.80
2018-10-18T07:14:44.576Z,30.00
2018-10-18T07:15:44.461Z,30.50
2018-10-18T07:16:44.467Z,30.10
2018-10-18T07:17:44.546Z,30.50
2018-10-18T07:18:44.446Z,31.70
2018-10-18T07:19:44.486Z,31.80
2018-10-18T07:20:44.435Z,32.80
2018-10-18T07:21:44.406Z,33.00
2018-10-18T07:22:44.397Z,33.20
2018-10-18T07:23:44.352Z,32.00
2018-10-18T07:24:44.349Z,38.20
2018-10-18T07:25:44.443Z,35.30
2018-10-18T07:26:44.354Z,32.40
2018-10-18T07:27:44.325Z,36.30
2018-10-18T07:28:44.311Z,33.60
2018-10-18T07:29:44.290Z,32.40
2018-10-18T07:30:44.279Z,33.40
2018-10-18T07:31:44.270Z,33.90
2018-10-18T07:32:44.273Z,33.90
2018-10-18T07:33:44.299Z,34.40
2018-10-18T07:34:44.272Z,33.20
2018-10-18T07:35:44.226Z,34.20
2018-10-18T07:36:44.224Z,33.90
2018-10-18T07:37:44.229Z,34.50
2018-10-18T07:38:44.287Z,41.00
2018-10-18T07:39:44.179Z,38.90
2018-10-18T07:40:44.226Z,35.70
2018-10-18T07:41:44.197Z,35.60
2018-10-18T07:42:44.216Z,35.60
2018-10-18T07:43:44.185Z,36.20
2018-10-18T07:44:44.127Z,35.50
2018-10-18T07:45:44.138Z,36.60
2018-10-18T07:46:44.187Z,36.30
2018-10-18T07:47:44.118Z,38.50
2018-10-18T07:48:44.077Z,37.50
2018-10-18T07:49:44.090Z,38.40
2018-10-18T07:50:44.081Z,36.70
2018-10-18T07:51:44.046Z,36.40
2018-10-18T07:52:44.063Z,36.20
2018-10-18T07:53:44.144Z,36.90
2018-10-18T07:54:44.089Z,36.00
2018-10-18T07:55:44.070Z,38.70
2018-10-18T07:56:44.018Z,38.30
2018-10-18T07:57:43.987Z,38.80
2018-10-18T07:58:44.071Z,38.20
2018-10-18T07:59:43.984Z,39.60
2018-10-18T08:00:44.094Z,39.60
2018-10-18T08:01:43.983Z,40.10
2018-10-18T08:02:43.960Z,39.30
2018-10-18T08:03:43.931Z,40.50
2018-10-18T08:04:43.905Z,41.60
2018-10-18T08:05:43.951Z,41.10
2018-10-18T08:06:43.894Z,42.80
2018-10-18T08:07:43.873Z,44.10
2018-10-18T08:08:43.875Z,43.90
2018-10-18T08:09:43.857Z,44.00
2018-10-18T08:10:43.873Z,42.50
2018-10-18T08:11:43.858Z,44.50
2018-10-18T08:12:43.820Z,43.50
2018-10-18T08:13:43.812Z,43.60
2018-10-18T08:14:43.811Z,45.50
2018-10-18T08:15:43.823Z,45.30
2018-10-18T08:16:43.899Z,45.40
2018-10-18T08:17:43.765Z,46.80
2018-10-18T08:18:43.759Z,47.10
2018-10-18T08:19:43.736Z,47.10
2018-10-18T08:20:43.727Z,51.60
2018-10-18T08:21:43.711Z,51.50
2018-10-18T08:22:43.808Z,48.70
2018-10-18T08:23:43.710Z,50.10
2018-10-18T08:24:43.725Z,50.80
2018-10-18T08:25:43.686Z,50.30
2018-10-18T08:26:43.659Z,48.90
2018-10-18T08:27:43.661Z,50.20
2018-10-18T08:28:43.646Z,50.00
2018-10-18T08:29:43.617Z,51.70
2018-10-18T08:30:43.618Z,49.80
2018-10-18T08:31:43.669Z,51.30
2018-10-18T08:32:43.632Z,54.50
2018-10-18T08:33:43.586Z,54.40
2018-10-18T08:34:43.581Z,55.90
2018-10-18T08:35:43.552Z,54.50
2018-10-18T08:36:43.666Z,55.30
2018-10-18T08:37:43.715Z,55.10
2018-10-18T08:38:43.543Z,50.50
2018-10-18T08:39:43.554Z,51.60
2018-10-18T08:40:43.493Z,51.70
2018-10-18T08:41:43.520Z,51.90
2018-10-18T08:42:43.485Z,53.90
2018-10-18T08:43:43.472Z,51.10
2018-10-18T08:44:43.453Z,50.00
2018-10-18T08:45:43.442Z,50.50
2018-10-18T08:46:43.430Z,49.00
2018-10-18T08:47:43.421Z,50.10
2018-10-18T08:48:43.409Z,50.20
2018-10-18T08:49:43.434Z,50.80
2018-10-18T08:50:43.381Z,49.70
2018-10-18T08:51:43.373Z,49.70
2018-10-18T08:52:43.446Z,50.30
2018-10-18T08:53:43.356Z,51.30
2018-10-18T08:54:43.339Z,50.90
2018-10-18T08:55:43.332Z,52.80
2018-10-18T08:56:43.322Z,51.30
2018-10-18T08:57:43.306Z,51.10
2018-10-18T08:58:43.373Z,52.50
2018-10-18T08:59:43.284Z,52.10
2018-10-18T09:00:43.317Z,50.80
2018-10-18T09:01:43.279Z,50.30
2018-10-18T09:02:43.255Z,51.00
2018-10-18T09:03:43.279Z,50.50
2018-10-18T09:04:43.229Z,52.20
2018-10-18T09:05:43.255Z,50.90
2018-10-18T09:06:43.208Z,51.80
2018-10-18T09:07:43.212Z,50.60
2018-10-18T09:08:43.185Z,53.30
2018-10-18T09:09:43.224Z,53.70
2018-10-18T09:10:43.163Z,54.80
2018-10-18T09:11:43.154Z,51.50
2018-10-18T09:12:43.178Z,50.10
2018-10-18T09:13:43.129Z,51.80
2018-10-18T09:14:43.111Z,51.90
2018-10-18T09:15:43.246Z,51.10
2018-10-18T09:16:43.093Z,51.50
2018-10-18T09:17:43.091Z,50.90
2018-10-18T09:18:43.083Z,50.30
2018-10-18T09:19:43.088Z,52.40
2018-10-18T09:20:43.057Z,50.70
2018-10-18T09:21:43.038Z,50.60
2018-10-18T09:22:43.058Z,52.50
2018-10-18T09:23:43.046Z,49.70
2018-10-18T09:24:43.012Z,50.70
2018-10-18T09:25:43.032Z,51.50
2018-10-18T09:26:42.973Z,51.70
2018-10-18T09:27:42.994Z,49.40
2018-10-18T09:28:42.968Z,50.30
2018-10-18T09:29:42.946Z,50.20
2018-10-18T09:30:42.962Z,50.20
2018-10-18T09:31:42.925Z,50.80
2018-10-18T09:32:42.915Z,51.50
2018-10-18T09:33:42.901Z,53.50
2018-10-18T09:34:42.978Z,53.70
2018-10-18T09:35:42.891Z,51.80
2018-10-18T09:36:42.874Z,50.70
2018-10-18T09:37:42.898Z,51.50
2018-10-18T09:38:42.885Z,52.80
2018-10-18T09:39:42.840Z,51.50
2018-10-18T09:40:42.824Z,50.90
2018-10-18T09:41:42.845Z,51.40
2018-10-18T09:42:42.811Z,50.40
2018-10-18T09:43:42.794Z,50.40
2018-10-18T09:44:42.832Z,50.10
2018-10-18T09:45:42.804Z,51.30
2018-10-18T09:46:42.760Z,50.80
2018-10-18T09:47:42.784Z,51.30
2018-10-18T09:48:42.746Z,50.90
2018-10-18T09:49:42.726Z,51.60
2018-10-18T09:50:42.715Z,49.70
2018-10-18T09:51:42.720Z,49.90
2018-10-18T09:52:43.938Z,50.00
2018-10-18T09:53:42.673Z,51.70
2018-10-18T09:54:42.680Z,52.00
2018-10-18T09:55:42.675Z,50.20
2018-10-18T09:56:42.652Z,52.40
2018-10-18T09:57:42.676Z,52.70
2018-10-18T09:58:42.621Z,51.90
2018-10-18T09:59:42.613Z,51.20
2018-10-18T10:00:42.600Z,51.50
2018-10-18T10:01:42.582Z,52.20
2018-10-18T10:02:42.612Z,51.90
2018-10-18T10:03:42.579Z,52.20
2018-10-18T10:04:42.550Z,51.40
2018-10-18T10:05:42.562Z,52.00
2018-10-18T10:06:42.557Z,51.40
2018-10-18T10:07:42.543Z,51.70
2018-10-18T10:08:42.519Z,51.40
2018-10-18T10:09:42.512Z,51.10
2018-10-18T10:10:42.508Z,52.10
2018-10-18T10:11:42.496Z,50.70
2018-10-18T10:12:42.500Z,53.30
2018-10-18T10:13:42.526Z,54.30
2018-10-18T10:14:42.442Z,50.80
2018-10-18T10:15:42.434Z,51.30
2018-10-18T10:16:42.425Z,50.90
2018-10-18T10:17:42.541Z,50.30
2018-10-18T10:18:42.414Z,51.40
2018-10-18T10:19:42.395Z,49.50
2018-10-18T10:20:42.378Z,47.60
2018-10-18T10:21:42.438Z,47.50
2018-10-18T10:22:42.361Z,47.00
2018-10-18T10:23:42.360Z,49.00
2018-10-18T10:24:42.369Z,48.90
2018-10-18T10:25:42.316Z,47.80
2018-10-18T10:26:42.311Z,47.70
2018-10-18T10:27:42.293Z,46.40
2018-10-18T10:28:42.306Z,48.20
2018-10-18T10:29:42.326Z,46.30
2018-10-18T10:30:42.277Z,44.70
2018-10-18T10:31:42.250Z,45.40
2018-10-18T10:32:42.324Z,44.80
2018-10-18T10:33:42.239Z,45.80
2018-10-18T10:34:42.249Z,45.40
2018-10-18T10:35:42.348Z,43.90
2018-10-18T10:36:42.269Z,42.60
2018-10-18T10:37:42.187Z,41.60
2018-10-18T10:38:42.178Z,40.90
2018-10-18T10:39:42.232Z,40.10
2018-10-18T10:40:42.259Z,39.10
2018-10-18T10:41:42.142Z,40.80
2018-10-18T10:42:42.195Z,41.50
2018-10-18T10:43:42.116Z,44.00
2018-10-18T10:44:42.217Z,41.10
2018-10-18T10:45:42.109Z,39.70
2018-10-18T10:46:42.090Z,41.40
2018-10-18T10:47:42.071Z,40.20
2018-10-18T10:48:42.095Z,40.60
2018-10-18T10:49:42.058Z,38.90
2018-10-18T10:50:42.040Z,38.20
2018-10-18T10:51:42.032Z,38.90
2018-10-18T10:52:42.026Z,38.30
2018-10-18T10:53:42.043Z,39.90
2018-10-18T10:54:41.998Z,43.10
2018-10-18T10:55:42.015Z,42.10
2018-10-18T10:56:41.980Z,41.60
2018-10-18T10:57:41.969Z,42.40
2018-10-18T10:58:41.957Z,42.20
2018-10-18T10:59:41.953Z,42.70
2018-10-18T11:00:42.016Z,41.50
2018-10-18T11:01:41.923Z,41.00
2018-10-18T11:02:41.911Z,41.00
2018-10-18T11:03:41.915Z,41.70
2018-10-18T11:04:41.923Z,42.50
2018-10-18T11:05:41.876Z,40.30
2018-10-18T11:06:41.869Z,41.60
2018-10-18T11:07:41.859Z,40.20
2018-10-18T11:08:41.868Z,42.60
2018-10-18T11:09:41.906Z,42.30
2018-10-18T11:10:41.829Z,40.40
2018-10-18T11:11:41.817Z,38.70
2018-10-18T11:12:41.892Z,38.40
2018-10-18T11:13:41.804Z,38.30
2018-10-18T11:14:41.804Z,38.90
2018-10-18T11:15:41.763Z,38.90
2018-10-18T11:16:41.753Z,38.80
2018-10-18T11:17:41.783Z,39.80
2018-10-18T11:18:41.835Z,40.00
2018-10-18T11:19:41.716Z,40.10
2018-10-18T11:20:41.712Z,41.50
2018-10-18T11:21:41.802Z,39.30
2018-10-18T11:22:41.682Z,40.00
2018-10-18T11:23:41.677Z,40.10
2018-10-18T11:24:41.785Z,40.00
2018-10-18T11:25:41.669Z,38.00
2018-10-18T11:26:41.641Z,37.70
2018-10-18T11:27:41.657Z,36.30
2018-10-18T11:28:41.659Z,36.30
2018-10-18T11:29:41.607Z,38.10
2018-10-18T11:30:41.595Z,38.60
2018-10-18T11:31:41.606Z,38.70
2018-10-18T11:32:41.580Z,37.50
2018-10-18T11:33:41.565Z,36.80
2018-10-18T11:34:41.571Z,37.00
2018-10-18T11:35:41.570Z,38.30
2018-10-18T11:36:41.550Z,39.20
2018-10-18T11:37:41.524Z,39.30
2018-10-18T11:38:41.510Z,41.40
2018-10-18T11:39:41.498Z,41.10
2018-10-18T11:40:41.495Z,42.70
2018-10-18T11:41:41.477Z,41.80
2018-10-18T11:42:41.586Z,43.40
2018-10-18T11:43:41.456Z,43.60
2018-10-18T11:44:41.495Z,42.30
2018-10-18T11:45:41.450Z,41.00
2018-10-18T11:46:41.423Z,40.80
2018-10-18T11:47:41.416Z,39.00
2018-10-18T11:48:41.415Z,38.00
2018-10-18T11:49:41.405Z,36.70
2018-10-18T11:50:41.411Z,37.60
2018-10-18T11:51:41.501Z,36.80
2018-10-18T11:52:41.359Z,37.40
2018-10-18T11:53:41.336Z,39.40
2018-10-18T11:54:41.331Z,37.00
2018-10-18T11:55:41.315Z,36.50
2018-10-18T11:56:41.356Z,35.60
2018-10-18T11:57:41.321Z,37.60
2018-10-18T11:58:41.277Z,35.40
2018-10-18T11:59:41.286Z,36.90
2018-10-18T12:00:41.264Z,38.20
2018-10-18T12:01:41.274Z,36.00
2018-10-18T12:02:41.321Z,38.00
2018-10-18T12:03:41.304Z,37.40
2018-10-18T12:04:41.211Z,38.20
2018-10-18T12:05:41.726Z,36.00
2018-10-18T12:06:41.202Z,37.00
2018-10-18T12:07:41.206Z,37.40
2018-10-18T12:08:41.175Z,37.80
2018-10-18T12:09:41.177Z,37.10
2018-10-18T12:10:41.149Z,38.40
2018-10-18T12:11:41.138Z,38.80
2018-10-18T12:12:41.145Z,38.20
2018-10-18T12:13:41.135Z,37.00
2018-10-18T12:14:41.150Z,37.10
2018-10-18T12:15:41.144Z,36.20
2018-10-18T12:16:41.148Z,36.20
2018-10-18T12:17:41.111Z,35.80
2018-10-18T12:18:41.115Z,36.00
2018-10-18T12:19:41.048Z,36.70
2018-10-18T12:20:41.080Z,35.80
2018-10-18T12:21:41.022Z,36.00
2018-10-18T12:22:41.019Z,35.90
2018-10-18T12:23:41.007Z,34.80
2018-10-18T12:24:40.991Z,33.40
2018-10-18T12:25:40.984Z,34.30
2018-10-18T12:26:41.036Z,32.80
2018-10-18T12:27:40.986Z,33.70
2018-10-18T12:28:40.949Z,33.40
2018-10-18T12:29:40.980Z,33.50
2018-10-18T12:30:40.926Z,34.30
2018-10-18T12:31:40.926Z,32.70
2018-10-18T12:32:40.902Z,34.10
2018-10-18T12:33:40.889Z,31.80
2018-10-18T12:34:40.976Z,30.00
2018-10-18T12:35:40.876Z,29.30
2018-10-18T12:36:40.855Z,30.80
2018-10-18T12:37:40.940Z,29.90
2018-10-18T12:38:40.841Z,29.40
2018-10-18T12:39:41.003Z,29.80
2018-10-18T12:40:40.870Z,30.40
2018-10-18T12:41:40.869Z,31.30
2018-10-18T12:42:40.816Z,28.60
2018-10-18T12:43:40.782Z,29.90
2018-10-18T12:44:40.775Z,30.50
2018-10-18T12:45:40.828Z,29.70
2018-10-18T12:46:40.746Z,28.70
2018-10-18T12:47:40.740Z,29.40
2018-10-18T12:48:40.831Z,29.70
2018-10-18T12:49:40.709Z,29.10
2018-10-18T12:50:40.710Z,27.30
2018-10-18T12:51:40.703Z,27.90
2018-10-18T12:52:40.675Z,28.50